createdAt,value
2018-03-15T00:00:12.676Z,1008.78
2018-03-15T00:02:45.297Z,1008.72
2018-03-15T00:03:44.709Z,1008.70
2018-03-15T00:04:44.621Z,1008.74
2018-03-15T00:05:44.591Z,1008.69
2018-03-15T00:06:45.800Z,1008.69
2018-03-15T00:07:44.531Z,1008.69
2018-03-15T00:08:44.557Z,1008.67
2018-03-15T00:09:44.474Z,1008.66
2018-03-15T00:10:44.442Z,1008.64
2018-03-15T00:11:44.413Z,1008.66
2018-03-15T00:12:44.394Z,1008.64
2018-03-15T00:13:44.420Z,1008.63
2018-03-15T00:14:44.324Z,1008.63
2018-03-15T00:15:44.295Z,1008.60
2018-03-15T00:16:44.268Z,1008.57
2018-03-15T00:17:44.848Z,1008.56
2018-03-15T00:18:44.262Z,1008.53
2018-03-15T00:19:44.193Z,1008.54
2018-03-15T00:20:44.159Z,1008.52
2018-03-15T00:21:44.842Z,1008.50
2018-03-15T00:22:44.118Z,1008.49
2018-03-15T00:23:44.149Z,1008.47
2018-03-15T00:24:44.039Z,1008.49
2018-03-15T00:25:44.061Z,1008.47
2018-03-15T00:26:43.974Z,1008.48
2018-03-15T00:27:43.971Z,1008.45
2018-03-15T00:28:43.951Z,1008.46
2018-03-15T00:29:43.897Z,1008.45
2018-03-15T00:30:43.913Z,1008.46
2018-03-15T00:31:43.832Z,1008.44
2018-03-15T00:32:43.846Z,1008.42
2018-03-15T00:33:43.804Z,1008.42
2018-03-15T00:34:43.779Z,1008.41
2018-03-15T00:35:43.707Z,1008.38
2018-03-15T00:36:43.724Z,1008.44
2018-03-15T00:37:43.687Z,1008.44
2018-03-15T00:38:43.621Z,1008.40
2018-03-15T00:39:44.311Z,1008.44
2018-03-15T00:40:43.590Z,1008.38
2018-03-15T00:41:43.629Z,1008.37
2018-03-15T00:42:43.497Z,1008.38
2018-03-15T00:43:43.482Z,1008.41
2018-03-15T00:44:43.442Z,1008.36
2018-03-15T00:45:43.426Z,1008.31
2018-03-15T00:46:43.430Z,1008.30
2018-03-15T00:47:43.365Z,1008.29
2018-03-15T00:48:43.326Z,1008.29
2018-03-15T00:49:43.364Z,1008.29
2018-03-15T00:50:43.271Z,1008.25
2018-03-15T00:51:43.244Z,1008.23
2018-03-15T00:52:43.239Z,1008.22
2018-03-15T00:53:43.179Z,1008.22
2018-03-15T00:54:43.193Z,1008.18
2018-03-15T00:55:43.116Z,1008.21
2018-03-15T00:56:43.115Z,1008.22
2018-03-15T00:57:43.063Z,1008.20
2018-03-15T00:58:43.071Z,1008.21
2018-03-15T00:59:43.004Z,1008.23
2018-03-15T01:00:42.972Z,1008.22
2018-03-15T01:01:42.992Z,1008.21
2018-03-15T01:02:42.957Z,1008.23
2018-03-15T01:03:42.935Z,1008.22
2018-03-15T01:04:42.859Z,1008.24
2018-03-15T01:05:42.822Z,1008.28
2018-03-15T01:06:42.840Z,1008.22
2018-03-15T01:07:42.768Z,1008.28
2018-03-15T01:08:42.742Z,1008.29
2018-03-15T01:09:42.700Z,1008.24
2018-03-15T01:10:42.675Z,1008.26
2018-03-15T01:11:42.688Z,1008.26
2018-03-15T01:12:42.611Z,1008.24
2018-03-15T01:13:42.580Z,1008.23
2018-03-15T01:14:42.553Z,1008.25
2018-03-15T01:15:42.523Z,1008.24
2018-03-15T01:16:42.588Z,1008.25
2018-03-15T01:17:42.474Z,1008.20
2018-03-15T01:18:42.487Z,1008.15
2018-03-15T01:19:42.418Z,1008.15
2018-03-15T01:20:42.420Z,1008.14
2018-03-15T01:21:42.396Z,1008.12
2018-03-15T01:22:42.323Z,1008.10
2018-03-15T01:23:42.288Z,1008.09
2018-03-15T01:24:42.257Z,1008.07
2018-03-15T01:25:42.227Z,1008.03
2018-03-15T01:26:42.263Z,1008.00
2018-03-15T01:27:42.171Z,1007.97
2018-03-15T01:28:42.194Z,1008.00
2018-03-15T01:29:42.125Z,1007.98
2018-03-15T01:30:42.079Z,1007.97
2018-03-15T01:31:42.101Z,1007.95
2018-03-15T01:32:42.025Z,1007.97
2018-03-15T01:33:42.078Z,1007.99
2018-03-15T01:34:42.932Z,1007.95
2018-03-15T01:35:41.930Z,1007.89
2018-03-15T01:36:41.922Z,1007.93
2018-03-15T01:37:41.870Z,1007.91
2018-03-15T01:38:41.900Z,1007.90
2018-03-15T01:39:41.823Z,1007.88
2018-03-15T01:40:42.954Z,1007.88
2018-03-15T01:41:41.769Z,1007.86
2018-03-15T01:42:41.771Z,1007.88
2018-03-15T01:43:41.691Z,1007.88
2018-03-15T01:44:41.794Z,1007.87
2018-03-15T01:45:41.692Z,1007.88
2018-03-15T01:46:41.650Z,1007.86
2018-03-15T01:47:41.589Z,1007.83
2018-03-15T01:48:41.740Z,1007.84
2018-03-15T01:49:44.768Z,1007.86
2018-03-15T01:58:49.259Z,1007.81
2018-03-15T01:59:23.989Z,1007.79
2018-03-15T02:00:24.007Z,1007.78
2018-03-15T02:01:23.951Z,1007.77
2018-03-15T02:02:24.594Z,1007.76
2018-03-15T02:03:23.920Z,1007.75
2018-03-15T02:04:23.915Z,1007.74
2018-03-15T02:05:23.819Z,1007.73
2018-03-15T02:06:23.781Z,1007.73
2018-03-15T02:07:23.794Z,1007.72
2018-03-15T02:08:26.095Z,1007.74
2018-03-15T02:09:23.690Z,1007.70
2018-03-15T02:10:23.657Z,1007.72
2018-03-15T02:11:23.676Z,1007.71
2018-03-15T02:12:23.652Z,1007.71
2018-03-15T02:13:23.786Z,1007.72
2018-03-15T02:14:23.548Z,1007.68
2018-03-15T02:15:25.102Z,1007.71
2018-03-15T02:16:23.517Z,1007.66
2018-03-15T02:17:25.099Z,1007.69
2018-03-15T02:18:23.448Z,1007.68
2018-03-15T02:19:23.400Z,1007.65
2018-03-15T02:20:23.410Z,1007.67
2018-03-15T02:21:23.332Z,1007.68
2018-03-15T02:22:23.303Z,1007.64
2018-03-15T02:23:23.321Z,1007.66
2018-03-15T02:24:23.305Z,1007.66
2018-03-15T02:25:23.214Z,1007.64
2018-03-15T02:26:23.200Z,1007.63
2018-03-15T02:27:23.148Z,1007.65
2018-03-15T02:28:23.173Z,1007.62
2018-03-15T02:29:23.093Z,1007.59
2018-03-15T02:30:23.065Z,1007.58
2018-03-15T02:31:23.078Z,1007.60
2018-03-15T02:32:23.004Z,1007.58
2018-03-15T02:33:23.000Z,1007.59
2018-03-15T02:34:22.950Z,1007.61
2018-03-15T02:35:22.937Z,1007.60
2018-03-15T02:36:22.945Z,1007.58
2018-03-15T02:37:22.884Z,1007.59
2018-03-15T02:38:22.839Z,1007.56
2018-03-15T02:39:22.844Z,1007.57
2018-03-15T02:40:22.771Z,1007.52
2018-03-15T02:41:22.743Z,1007.52
2018-03-15T02:42:22.714Z,1007.50
2018-03-15T02:43:22.756Z,1007.55
2018-03-15T02:44:22.650Z,1007.48
2018-03-15T02:45:22.633Z,1007.53
2018-03-15T02:46:22.651Z,1007.50
2018-03-15T02:47:22.561Z,1007.51
2018-03-15T02:48:22.550Z,1007.50
2018-03-15T02:49:22.505Z,1007.49
2018-03-15T02:50:22.464Z,1007.53
2018-03-15T02:51:22.491Z,1007.52
2018-03-15T02:52:22.418Z,1007.53
2018-03-15T02:53:22.429Z,1007.52
2018-03-15T02:54:22.351Z,1007.52
2018-03-15T02:55:22.334Z,1007.53
2018-03-15T02:56:22.344Z,1007.56
2018-03-15T02:57:22.304Z,1007.53
2018-03-15T02:58:22.231Z,1007.56
2018-03-15T02:59:22.215Z,1007.52
2018-03-15T03:00:22.227Z,1007.52
2018-03-15T03:01:22.141Z,1007.53
2018-03-15T03:02:22.116Z,1007.58
2018-03-15T03:03:22.179Z,1007.53
2018-03-15T03:04:22.085Z,1007.54
2018-03-15T03:05:22.128Z,1007.50
2018-03-15T03:06:22.689Z,1007.51
2018-03-15T03:07:22.737Z,1007.56
2018-03-15T03:08:22.010Z,1007.53
2018-03-15T03:09:21.917Z,1007.54
2018-03-15T03:10:21.945Z,1007.54
2018-03-15T03:11:21.847Z,1007.55
2018-03-15T03:12:21.874Z,1007.56
2018-03-15T03:13:21.795Z,1007.60
2018-03-15T03:14:21.765Z,1007.53
2018-03-15T03:15:21.782Z,1007.51
2018-03-15T03:16:21.711Z,1007.49
2018-03-15T03:17:21.678Z,1007.54
2018-03-15T03:18:21.704Z,1007.50
2018-03-15T03:19:21.605Z,1007.46
2018-03-15T03:20:21.577Z,1007.45
2018-03-15T03:21:21.551Z,1007.48
2018-03-15T03:22:21.578Z,1007.46
2018-03-15T03:23:21.506Z,1007.43
2018-03-15T03:24:21.512Z,1007.43
2018-03-15T03:25:21.448Z,1007.42
2018-03-15T03:26:21.400Z,1007.42
2018-03-15T03:27:21.421Z,1007.45
2018-03-15T03:28:21.338Z,1007.44
2018-03-15T03:29:21.305Z,1007.42
2018-03-15T03:30:21.324Z,1007.42
2018-03-15T03:31:21.253Z,1007.40
2018-03-15T03:32:21.216Z,1007.38
2018-03-15T03:33:21.185Z,1007.38
2018-03-15T03:34:21.193Z,1007.35
2018-03-15T03:35:21.133Z,1007.36
2018-03-15T03:36:21.140Z,1007.33
2018-03-15T03:37:21.078Z,1007.34
2018-03-15T03:38:21.041Z,1007.34
2018-03-15T03:39:21.006Z,1007.29
2018-03-15T03:40:21.031Z,1007.30
2018-03-15T03:41:20.947Z,1007.34
2018-03-15T03:42:20.972Z,1007.37
2018-03-15T03:43:20.887Z,1007.31
2018-03-15T03:44:20.865Z,1007.34
2018-03-15T03:45:20.828Z,1007.38
2018-03-15T03:46:20.823Z,1007.33
2018-03-15T03:47:20.814Z,1007.31
2018-03-15T03:48:20.800Z,1007.32
2018-03-15T03:49:20.712Z,1007.32
2018-03-15T03:50:20.679Z,1007.32
2018-03-15T03:51:20.658Z,1007.35
2018-03-15T03:52:20.619Z,1007.32
2018-03-15T03:53:20.633Z,1007.28
2018-03-15T03:54:20.565Z,1007.30
2018-03-15T03:55:20.536Z,1007.30
2018-03-15T03:56:20.554Z,1007.26
2018-03-15T03:57:20.468Z,1007.28
2018-03-15T03:58:21.204Z,1007.29
2018-03-15T03:59:20.461Z,1007.32
2018-03-15T04:00:20.439Z,1007.26
2018-03-15T04:01:20.364Z,1007.29
2018-03-15T04:02:20.323Z,1007.32
2018-03-15T04:03:20.319Z,1007.31
2018-03-15T04:04:20.261Z,1007.31
2018-03-15T04:05:20.284Z,1007.32
2018-03-15T04:06:20.203Z,1007.31
2018-03-15T04:07:20.179Z,1007.31
2018-03-15T04:08:20.216Z,1007.32
2018-03-15T04:09:20.162Z,1007.32
2018-03-15T04:10:20.207Z,1007.29
2018-03-15T04:11:20.436Z,1007.31
2018-03-15T04:12:20.037Z,1007.36
2018-03-15T04:13:20.062Z,1007.26
2018-03-15T04:14:20.191Z,1007.28
2018-03-15T04:15:19.928Z,1007.30
2018-03-15T04:16:19.903Z,1007.30
2018-03-15T04:17:19.869Z,1007.29
2018-03-15T04:18:20.248Z,1007.30
2018-03-15T04:19:19.808Z,1007.28
2018-03-15T04:20:19.789Z,1007.26
2018-03-15T04:21:19.836Z,1007.28
2018-03-15T04:22:19.729Z,1007.32
2018-03-15T04:23:19.719Z,1007.26
2018-03-15T04:24:19.690Z,1007.34
2018-03-15T04:25:19.642Z,1007.32
2018-03-15T04:26:19.765Z,1007.33
2018-03-15T04:27:19.591Z,1007.32
2018-03-15T04:28:19.600Z,1007.33
2018-03-15T04:29:20.610Z,1007.35
2018-03-15T04:30:19.488Z,1007.31
2018-03-15T04:31:19.496Z,1007.29
2018-03-15T04:32:19.473Z,1007.26
2018-03-15T04:33:19.390Z,1007.29
2018-03-15T04:34:19.368Z,1007.28
2018-03-15T04:35:22.437Z,1007.28
2018-03-15T04:36:19.305Z,1007.30
2018-03-15T04:37:19.269Z,1007.31
2018-03-15T04:38:20.196Z,1007.28
2018-03-15T04:39:19.210Z,1007.29
2018-03-15T04:40:19.225Z,1007.30
2018-03-15T04:41:19.811Z,1007.29
2018-03-15T04:42:21.917Z,1007.31
2018-03-15T04:43:19.087Z,1007.30
2018-03-15T04:44:19.109Z,1007.30
2018-03-15T04:45:19.331Z,1007.26
2018-03-15T04:46:18.997Z,1007.27
2018-03-15T04:47:19.009Z,1007.26
2018-03-15T04:48:18.943Z,1007.25
2018-03-15T04:49:18.910Z,1007.28
2018-03-15T04:50:18.920Z,1007.30
2018-03-15T04:51:18.861Z,1007.27
2018-03-15T04:52:18.868Z,1007.27
2018-03-15T04:53:18.789Z,1007.28
2018-03-15T04:54:19.094Z,1007.27
2018-03-15T04:55:18.728Z,1007.28
2018-03-15T04:56:18.697Z,1007.26
2018-03-15T04:57:18.745Z,1007.28
2018-03-15T04:58:19.197Z,1007.28
2018-03-15T04:59:18.609Z,1007.27
2018-03-15T05:00:19.488Z,1007.26
2018-03-15T05:01:18.553Z,1007.27
2018-03-15T05:02:18.582Z,1007.31
2018-03-15T05:03:18.518Z,1007.32
2018-03-15T05:04:18.504Z,1007.30
2018-03-15T05:05:18.455Z,1007.35
2018-03-15T05:06:18.405Z,1007.30
2018-03-15T05:07:18.420Z,1007.30
2018-03-15T05:08:18.338Z,1007.33
2018-03-15T05:09:18.328Z,1007.34
2018-03-15T05:10:18.282Z,1007.34
2018-03-15T05:11:20.117Z,1007.29
2018-03-15T05:12:19.398Z,1007.28
2018-03-15T05:13:18.196Z,1007.26
2018-03-15T05:14:18.209Z,1007.29
2018-03-15T05:15:18.156Z,1007.23
2018-03-15T05:16:18.104Z,1007.28
2018-03-15T05:17:18.066Z,1007.25
2018-03-15T05:18:18.082Z,1007.23
2018-03-15T05:19:18.058Z,1007.24
2018-03-15T05:20:18.035Z,1007.19
2018-03-15T05:21:18.003Z,1007.22
2018-03-15T05:22:17.964Z,1007.13
2018-03-15T05:23:17.895Z,1007.19
2018-03-15T05:24:19.108Z,1007.15
2018-03-15T05:25:17.902Z,1007.13
2018-03-15T05:26:20.303Z,1007.19
2018-03-15T05:27:17.766Z,1007.17
2018-03-15T05:28:17.749Z,1007.17
2018-03-15T05:29:17.753Z,1007.18
2018-03-15T05:30:17.719Z,1007.18
2018-03-15T05:31:17.656Z,1007.12
2018-03-15T05:32:17.639Z,1007.16
2018-03-15T05:33:17.592Z,1007.18
2018-03-15T05:34:17.611Z,1007.18
2018-03-15T05:35:17.540Z,1007.16
2018-03-15T05:36:17.536Z,1007.22
2018-03-15T05:37:17.508Z,1007.17
2018-03-15T05:38:17.490Z,1007.22
2018-03-15T05:39:17.406Z,1007.17
2018-03-15T05:40:17.380Z,1007.18
2018-03-15T05:41:18.611Z,1007.23
2018-03-15T05:42:17.315Z,1007.10
2018-03-15T05:43:17.286Z,1007.16
2018-03-15T05:44:17.328Z,1007.18
2018-03-15T05:45:17.239Z,1007.15
2018-03-15T05:46:17.199Z,1007.13
2018-03-15T05:47:17.171Z,1007.21
2018-03-15T05:48:17.182Z,1007.20
2018-03-15T05:49:17.150Z,1007.18
2018-03-15T05:50:17.128Z,1007.23
2018-03-15T05:51:17.046Z,1007.23
2018-03-15T05:52:17.021Z,1007.18
2018-03-15T05:53:17.032Z,1007.17
2018-03-15T05:54:16.965Z,1007.21
2018-03-15T05:55:16.931Z,1007.15
2018-03-15T05:56:16.900Z,1007.18
2018-03-15T05:57:16.870Z,1007.17
2018-03-15T05:58:16.910Z,1007.14
2018-03-15T05:59:16.813Z,1007.12
2018-03-15T06:00:17.041Z,1007.11
2018-03-15T06:01:16.956Z,1007.16
2018-03-15T06:02:16.770Z,1007.16
2018-03-15T06:03:16.684Z,1007.24
2018-03-15T06:04:16.660Z,1007.16
2018-03-15T06:05:16.627Z,1007.19
2018-03-15T06:06:16.603Z,1007.20
2018-03-15T06:07:17.614Z,1007.20
2018-03-15T06:08:16.532Z,1007.24
2018-03-15T06:09:16.571Z,1007.22
2018-03-15T06:10:16.819Z,1007.22
2018-03-15T06:11:16.480Z,1007.26
2018-03-15T06:12:16.416Z,1007.24
2018-03-15T06:13:16.390Z,1007.26
2018-03-15T06:14:16.454Z,1007.23
2018-03-15T06:15:16.325Z,1007.21
2018-03-15T06:16:17.689Z,1007.29
2018-03-15T06:17:18.437Z,1007.30
2018-03-15T06:18:16.280Z,1007.30
2018-03-15T06:19:16.276Z,1007.30
2018-03-15T06:20:16.264Z,1007.30
2018-03-15T06:21:16.204Z,1007.30
2018-03-15T06:22:16.114Z,1007.31
2018-03-15T06:23:16.133Z,1007.35
2018-03-15T06:24:16.057Z,1007.37
2018-03-15T06:25:16.021Z,1007.35
2018-03-15T06:26:15.992Z,1007.29
2018-03-15T06:27:16.004Z,1007.30
2018-03-15T06:28:16.268Z,1007.33
2018-03-15T06:29:15.911Z,1007.37
2018-03-15T06:30:15.889Z,1007.34
2018-03-15T06:31:15.847Z,1007.34
2018-03-15T06:32:15.862Z,1007.34
2018-03-15T06:33:15.800Z,1007.36
2018-03-15T06:34:15.752Z,1007.32
2018-03-15T06:35:15.730Z,1007.39
2018-03-15T06:36:15.739Z,1007.36
2018-03-15T06:37:15.662Z,1007.39
2018-03-15T06:38:15.678Z,1007.36
2018-03-15T06:39:15.606Z,1007.36
2018-03-15T06:40:15.633Z,1007.41
2018-03-15T06:41:15.542Z,1007.42
2018-03-15T06:42:15.514Z,1007.40
2018-03-15T06:43:15.536Z,1007.45
2018-03-15T06:44:15.465Z,1007.48
2018-03-15T06:45:15.426Z,1007.49
2018-03-15T06:46:15.393Z,1007.47
2018-03-15T06:47:15.369Z,1007.51
2018-03-15T06:48:15.600Z,1007.55
2018-03-15T06:49:15.319Z,1007.53
2018-03-15T06:50:15.282Z,1007.52
2018-03-15T06:51:15.291Z,1007.53
2018-03-15T06:52:15.217Z,1007.48
2018-03-15T06:53:15.251Z,1007.48
2018-03-15T06:54:15.151Z,1007.49
2018-03-15T06:55:15.769Z,1007.53
2018-03-15T06:56:15.128Z,1007.50
2018-03-15T06:57:15.061Z,1007.43
2018-03-15T06:58:15.031Z,1007.45
2018-03-15T06:59:15.000Z,1007.46
2018-03-15T07:00:14.973Z,1007.45
2018-03-15T07:01:14.989Z,1007.43
2018-03-15T07:02:14.911Z,1007.42
2018-03-15T07:03:14.882Z,1007.46
2018-03-15T07:04:14.853Z,1007.43
2018-03-15T07:05:14.818Z,1007.44
2018-03-15T07:06:14.854Z,1007.43
2018-03-15T07:07:16.649Z,1007.51
2018-03-15T07:08:14.801Z,1007.41
2018-03-15T07:09:14.746Z,1007.44
2018-03-15T07:10:14.679Z,1007.43
2018-03-15T07:11:14.643Z,1007.47
2018-03-15T07:12:14.613Z,1007.44
2018-03-15T07:13:14.626Z,1007.46
2018-03-15T07:14:16.117Z,1007.48
2018-03-15T07:15:15.290Z,1007.47
2018-03-15T07:16:15.895Z,1007.45
2018-03-15T07:17:14.466Z,1007.50
2018-03-15T07:18:14.436Z,1007.45
2018-03-15T07:19:14.457Z,1007.45
2018-03-15T07:20:14.382Z,1007.46
2018-03-15T07:21:14.363Z,1007.47
2018-03-15T07:22:14.358Z,1007.50
2018-03-15T07:23:14.533Z,1007.49
2018-03-15T07:24:14.259Z,1007.44
2018-03-15T07:25:14.230Z,1007.57
2018-03-15T07:26:14.240Z,1007.53
2018-03-15T07:27:14.189Z,1007.50
2018-03-15T07:28:14.404Z,1007.59
2018-03-15T07:29:14.119Z,1007.56
2018-03-15T07:30:15.673Z,1007.58
2018-03-15T07:31:14.122Z,1007.58
2018-03-15T07:32:14.026Z,1007.56
2018-03-15T07:33:14.002Z,1007.51
2018-03-15T07:34:13.974Z,1007.56
2018-03-15T07:35:14.220Z,1007.59
2018-03-15T07:36:13.954Z,1007.54
2018-03-15T07:37:14.707Z,1007.58
2018-03-15T07:38:13.908Z,1007.58
2018-03-15T07:39:13.819Z,1007.56
2018-03-15T07:40:14.563Z,1007.49
2018-03-15T07:41:13.760Z,1007.55
2018-03-15T07:42:13.780Z,1007.55
2018-03-15T07:43:13.700Z,1007.53
2018-03-15T07:44:14.332Z,1007.55
2018-03-15T07:45:14.430Z,1007.57
2018-03-15T07:46:13.655Z,1007.51
2018-03-15T07:47:13.630Z,1007.57
2018-03-15T07:48:14.197Z,1007.48
2018-03-15T07:49:13.875Z,1007.53
2018-03-15T07:50:13.496Z,1007.58
2018-03-15T07:51:13.507Z,1007.48
2018-03-15T07:52:13.436Z,1007.53
2018-03-15T07:53:13.448Z,1007.51
2018-03-15T07:54:13.371Z,1007.52
2018-03-15T07:55:13.340Z,1007.46
2018-03-15T07:56:13.310Z,1007.50
2018-03-15T07:57:13.536Z,1007.43
2018-03-15T07:58:13.263Z,1007.46
2018-03-15T07:59:13.226Z,1007.51
2018-03-15T08:00:13.196Z,1007.48
2018-03-15T08:01:13.160Z,1007.47
2018-03-15T08:02:13.218Z,1007.47
2018-03-15T08:03:13.148Z,1007.56
2018-03-15T08:04:13.084Z,1007.55
2018-03-15T08:05:13.043Z,1007.48
2018-03-15T08:06:13.212Z,1007.46
2018-03-15T08:07:12.984Z,1007.50
2018-03-15T08:08:12.999Z,1007.48
2018-03-15T08:09:12.922Z,1007.45
2018-03-15T08:10:12.891Z,1007.46
2018-03-15T08:11:12.866Z,1007.42
2018-03-15T08:12:12.883Z,1007.42
2018-03-15T08:13:12.801Z,1007.46
2018-03-15T08:14:12.801Z,1007.40
2018-03-15T08:15:13.041Z,1007.42
2018-03-15T08:16:12.927Z,1007.35
2018-03-15T08:17:13.457Z,1007.37
2018-03-15T08:18:12.725Z,1007.35
2018-03-15T08:19:13.658Z,1007.31
2018-03-15T08:20:12.595Z,1007.30
2018-03-15T08:21:12.608Z,1007.30
2018-03-15T08:22:12.645Z,1007.25
2018-03-15T08:23:12.511Z,1007.28
2018-03-15T08:24:13.271Z,1007.22
2018-03-15T08:25:13.151Z,1007.20
2018-03-15T08:26:12.895Z,1007.22
2018-03-15T08:27:12.398Z,1007.21
2018-03-15T08:28:13.125Z,1007.21
2018-03-15T08:29:12.332Z,1007.15
2018-03-15T08:30:12.302Z,1007.20
2018-03-15T08:31:12.265Z,1007.14
2018-03-15T08:32:12.236Z,1007.16
2018-03-15T08:33:12.254Z,1007.23
2018-03-15T08:34:12.178Z,1007.22
2018-03-15T08:35:12.156Z,1007.25
2018-03-15T08:36:12.119Z,1007.21
2018-03-15T08:37:12.200Z,1007.19
2018-03-15T08:38:12.055Z,1007.20
2018-03-15T08:39:12.033Z,1007.13
2018-03-15T08:40:11.997Z,1007.22
2018-03-15T08:41:11.971Z,1007.17
2018-03-15T08:42:11.994Z,1007.16
2018-03-15T08:43:11.915Z,1007.15
2018-03-15T08:44:11.884Z,1007.11
2018-03-15T08:45:11.853Z,1007.14
2018-03-15T08:46:11.862Z,1007.11
2018-03-15T08:47:11.832Z,1007.09
2018-03-15T08:48:11.765Z,1007.08
2018-03-15T08:49:11.826Z,1007.10
2018-03-15T08:50:11.705Z,1007.01
2018-03-15T08:51:11.682Z,1007.01
2018-03-15T08:52:11.642Z,1007.03
2018-03-15T08:53:11.660Z,1007.03
2018-03-15T08:54:11.587Z,1007.03
2018-03-15T08:55:14.577Z,1007.08
2018-03-15T08:56:11.524Z,1007.08
2018-03-15T08:57:11.494Z,1007.08
2018-03-15T08:58:11.469Z,1007.00
2018-03-15T08:59:11.441Z,1007.03
2018-03-15T09:00:11.480Z,1007.07
2018-03-15T09:01:11.425Z,1007.07
2018-03-15T09:02:11.356Z,1007.07
2018-03-15T09:03:11.325Z,1007.09
2018-03-15T09:04:11.291Z,1007.05
2018-03-15T09:05:11.350Z,1007.02
2018-03-15T09:06:11.228Z,1007.02
2018-03-15T09:07:11.363Z,1007.07
2018-03-15T09:08:11.178Z,1007.03
2018-03-15T09:09:11.192Z,1007.06
2018-03-15T09:10:11.111Z,1007.08
2018-03-15T09:11:11.133Z,1007.06
2018-03-15T09:12:11.053Z,1007.08
2018-03-15T09:13:11.023Z,1007.03
2018-03-15T09:14:10.998Z,1007.05
2018-03-15T09:15:11.006Z,1007.02
2018-03-15T09:16:10.936Z,1006.97
2018-03-15T09:17:10.907Z,1006.95
2018-03-15T09:18:10.916Z,1007.00
2018-03-15T09:19:10.843Z,1006.90
2018-03-15T09:20:10.815Z,1006.92
2018-03-15T09:21:10.790Z,1006.84
2018-03-15T09:22:10.794Z,1006.88
2018-03-15T09:23:10.752Z,1006.83
2018-03-15T09:24:10.696Z,1006.85
2018-03-15T09:25:10.718Z,1006.79
2018-03-15T09:26:10.635Z,1006.84
2018-03-15T09:27:10.655Z,1006.82
2018-03-15T09:28:10.577Z,1006.84
2018-03-15T09:29:10.595Z,1006.81
2018-03-15T09:30:10.522Z,1006.75
2018-03-15T09:31:10.542Z,1006.71
2018-03-15T09:32:10.465Z,1006.73
2018-03-15T09:33:10.440Z,1006.72
2018-03-15T09:34:10.400Z,1006.72
2018-03-15T09:35:10.381Z,1006.72
2018-03-15T09:36:10.384Z,1006.68
2018-03-15T09:37:10.363Z,1006.66
2018-03-15T09:38:10.283Z,1006.71
2018-03-15T09:39:10.268Z,1006.71
2018-03-15T09:40:10.229Z,1006.65
2018-03-15T09:41:10.198Z,1006.66
2018-03-15T09:42:10.236Z,1006.67
2018-03-15T09:43:10.138Z,1006.67
2018-03-15T09:44:10.158Z,1006.58
2018-03-15T09:45:10.084Z,1006.64
2018-03-15T09:46:10.075Z,1006.62
2018-03-15T09:47:10.073Z,1006.59
2018-03-15T09:48:09.996Z,1006.56
2018-03-15T09:49:09.965Z,1006.55
2018-03-15T09:50:09.985Z,1006.55
2018-03-15T09:51:09.935Z,1006.54
2018-03-15T09:52:09.882Z,1006.51
2018-03-15T09:53:09.850Z,1006.51
2018-03-15T09:54:09.864Z,1006.52
2018-03-15T09:55:09.793Z,1006.50
2018-03-15T09:56:09.764Z,1006.40
2018-03-15T09:57:09.728Z,1006.51
2018-03-15T09:58:09.748Z,1006.51
2018-03-15T09:59:09.696Z,1006.48
2018-03-15T10:00:09.660Z,1006.51
2018-03-15T10:01:09.612Z,1006.51
2018-03-15T10:02:09.638Z,1006.53
2018-03-15T10:03:09.556Z,1006.50
2018-03-15T10:04:09.527Z,1006.48
2018-03-15T10:05:09.507Z,1006.45
2018-03-15T10:06:09.502Z,1006.46
2018-03-15T10:07:09.487Z,1006.51
2018-03-15T10:08:09.412Z,1006.43
2018-03-15T10:09:09.429Z,1006.45
2018-03-15T10:10:09.403Z,1006.44
2018-03-15T10:11:09.368Z,1006.45
2018-03-15T10:12:09.329Z,1006.48
2018-03-15T10:13:09.311Z,1006.50
2018-03-15T10:14:09.239Z,1006.46
2018-03-15T10:15:09.211Z,1006.51
2018-03-15T10:16:09.218Z,1006.44
2018-03-15T10:17:09.152Z,1006.43
2018-03-15T10:18:09.166Z,1006.52
2018-03-15T10:19:09.098Z,1006.45
2018-03-15T10:20:09.079Z,1006.44
2018-03-15T10:21:09.037Z,1006.50
2018-03-15T10:22:09.007Z,1006.48
2018-03-15T10:23:09.021Z,1006.38
2018-03-15T10:24:08.949Z,1006.46
2018-03-15T10:25:13.769Z,1006.40
2018-03-15T10:26:08.949Z,1006.33
2018-03-15T10:27:08.868Z,1006.35
2018-03-15T10:28:08.834Z,1006.29
2018-03-15T10:29:08.801Z,1006.27
2018-03-15T10:30:08.825Z,1006.25
2018-03-15T10:31:08.797Z,1006.15
2018-03-15T10:32:08.722Z,1006.14
2018-03-15T10:33:08.690Z,1006.15
2018-03-15T10:34:08.658Z,1006.14
2018-03-15T10:35:08.677Z,1006.13
2018-03-15T10:36:08.609Z,1006.21
2018-03-15T10:37:08.574Z,1006.15
2018-03-15T10:38:08.546Z,1006.15
2018-03-15T10:39:08.526Z,1006.12
2018-03-15T10:40:08.543Z,1006.10
2018-03-15T10:41:08.493Z,1006.09
2018-03-15T10:42:08.471Z,1006.11
2018-03-15T10:43:08.399Z,1006.14
2018-03-15T10:44:08.378Z,1006.12
2018-03-15T10:45:08.385Z,1006.13
2018-03-15T10:46:08.379Z,1006.17
2018-03-15T10:47:08.286Z,1006.11
2018-03-15T10:48:08.265Z,1006.13
2018-03-15T10:49:08.269Z,1006.13
2018-03-15T10:50:08.207Z,1006.08
2018-03-15T10:51:08.210Z,1006.11
2018-03-15T10:52:08.221Z,1006.11
2018-03-15T10:53:08.116Z,1006.07
2018-03-15T10:54:08.149Z,1006.10
2018-03-15T10:55:08.075Z,1006.06
2018-03-15T10:56:08.042Z,1006.16
2018-03-15T10:57:08.005Z,1006.10
2018-03-15T10:58:08.027Z,1006.12
2018-03-15T10:59:07.957Z,1006.14
2018-03-15T11:00:07.922Z,1006.08
2018-03-15T11:01:07.894Z,1005.99
2018-03-15T11:02:07.862Z,1006.08
2018-03-15T11:03:07.879Z,1006.11
2018-03-15T11:04:07.808Z,1006.16
2018-03-15T11:05:07.823Z,1006.13
2018-03-15T11:06:07.751Z,1006.12
2018-03-15T11:07:07.722Z,1006.09
2018-03-15T11:08:07.741Z,1006.07
2018-03-15T11:09:07.732Z,1006.12
2018-03-15T11:10:07.641Z,1006.13
2018-03-15T11:11:07.684Z,1006.14
2018-03-15T11:12:07.655Z,1006.15
2018-03-15T11:13:07.553Z,1006.13
2018-03-15T11:14:07.524Z,1006.13
2018-03-15T11:15:07.552Z,1006.14
2018-03-15T11:16:07.471Z,1006.19
2018-03-15T11:17:07.480Z,1006.13
2018-03-15T11:18:08.252Z,1006.21
2018-03-15T11:19:07.382Z,1006.14
2018-03-15T11:20:07.357Z,1006.15
2018-03-15T11:21:07.329Z,1006.18
2018-03-15T11:22:07.343Z,1006.18
2018-03-15T11:23:07.272Z,1006.13
2018-03-15T11:24:07.240Z,1006.13
2018-03-15T11:25:07.254Z,1006.15
2018-03-15T11:26:07.191Z,1006.10
2018-03-15T11:27:07.164Z,1006.08
2018-03-15T11:28:07.132Z,1006.17
2018-03-15T11:29:07.100Z,1006.17
2018-03-15T11:30:07.126Z,1006.11
2018-03-15T11:31:07.052Z,1006.16
2018-03-15T11:32:07.063Z,1006.11
2018-03-15T11:33:06.986Z,1006.12
2018-03-15T11:34:06.963Z,1006.10
2018-03-15T11:35:06.939Z,1006.06
2018-03-15T11:36:09.757Z,1006.05
2018-03-15T11:37:06.918Z,1005.98
2018-03-15T11:38:06.888Z,1005.95
2018-03-15T11:39:12.086Z,1005.96
2018-03-15T11:40:06.829Z,1005.91
2018-03-15T11:41:06.762Z,1005.95
2018-03-15T11:42:06.731Z,1005.95
2018-03-15T11:43:06.741Z,1005.88
2018-03-15T11:44:06.727Z,1005.85
2018-03-15T11:45:06.645Z,1005.81
2018-03-15T11:46:06.631Z,1005.79
2018-03-15T11:47:06.636Z,1005.78
2018-03-15T11:48:06.562Z,1005.70
2018-03-15T11:49:06.536Z,1005.75
2018-03-15T11:50:06.508Z,1005.87
2018-03-15T11:51:06.481Z,1005.76
2018-03-15T11:52:06.501Z,1005.76
2018-03-15T11:53:06.422Z,1005.77
2018-03-15T11:54:06.445Z,1005.74
2018-03-15T11:55:06.410Z,1005.76
2018-03-15T11:56:06.354Z,1005.75
2018-03-15T11:57:06.360Z,1005.74
2018-03-15T11:58:06.284Z,1005.80
2018-03-15T11:59:06.262Z,1005.70
2018-03-15T12:00:06.275Z,1005.77
2018-03-15T12:01:06.199Z,1005.74
2018-03-15T12:02:06.226Z,1005.76
2018-03-15T12:03:06.149Z,1005.70
2018-03-15T12:04:06.135Z,1005.73
2018-03-15T12:05:06.097Z,1005.67
2018-03-15T12:06:06.232Z,1005.66
2018-03-15T12:07:06.081Z,1005.64
2018-03-15T12:08:06.033Z,1005.64
2018-03-15T12:09:06.032Z,1005.75
2018-03-15T12:10:05.954Z,1005.74
2018-03-15T12:11:05.970Z,1005.70
2018-03-15T12:12:05.899Z,1005.67
2018-03-15T12:13:05.925Z,1005.61
2018-03-15T12:14:05.851Z,1005.54